Time;durP1;ratioP1;P1;durP2;ratioP2;P2;SDS_P1;SDS_P2;PMS_P1;PMS_P2;Temp;Humidity;BMP_temperature;BMP_pressure;BME280_temperature;BME280_humidity;BME280_pressure;Samples;Min_cycle;Max_cycle;Signal;HPM_P1;HPM_P2
2023/01/15 00:01:26;;;;;;;52.75;22.15;;;;;;;;;;5000853;28;20026;-67
2023/01/15 00:03:52;;;;;;;51.42;21.83;;;;;;;;;;5002404;28;20113;-66
2023/01/15 00:06:18;;;;;;;49.38;21.63;;;;;;;;;;4999610;28;20505;-66
2023/01/15 00:08:43;;;;;;;54.72;22.92;;;;;;;;;;5003387;28;20115;-66
2023/01/15 00:11:08;;;;;;;53.80;23.48;;;;;;;;;;5003811;28;20058;-68
2023/01/15 00:13:33;;;;;;;54.13;23.83;;;;;;;;;;5000834;28;20072;-68
2023/01/15 00:16:26;;;;;;;59.00;24.13;;;;;;;;;;4993576;28;20440;-67
2023/01/15 00:18:52;;;;;;;51.42;22.98;;;;;;;;;;4994200;28;20292;-68
2023/01/15 00:21:17;;;;;;;51.60;22.75;;;;;;;;;;4999829;28;20124;-67
2023/01/15 00:29:11;;;;;;;50.65;22.13;;;;;;;;;;5001904;28;20076;-67
2023/01/15 00:31:37;;;;;;;51.43;22.40;;;;;;;;;;5001305;28;20108;-67
2023/01/15 00:34:02;;;;;;;49.13;20.63;;;;;;;;;;4981014;28;20279;-68
2023/01/15 00:36:27;;;;;;;41.03;18.53;;;;;;;;;;5001578;28;20126;-68
2023/01/15 00:38:53;;;;;;;42.25;19.30;;;;;;;;;;4998404;28;20765;-67
2023/01/15 00:41:18;;;;;;;40.83;18.50;;;;;;;;;;5001215;28;20017;-67
2023/01/15 00:43:44;;;;;;;41.40;18.23;;;;;;;4.72;nan;101139.47;4996491;28;20390;-66
2023/01/15 00:46:09;;;;;;;37.05;17.30;;;;;;;;;;5003214;28;20022;-67
2023/01/15 00:48:35;;;;;;;38.47;18.25;;;;;;;;;;4997439;28;20493;-67
2023/01/15 00:51:00;;;;;;;38.20;17.25;;;;;;;;;;5000969;28;20104;-67
2023/01/15 00:53:25;;;;;;;38.10;17.00;;;;;;;;;;5003802;28;20021;-67
2023/01/15 00:55:51;;;;;;;36.70;16.80;;;;;;;;;;4998020;28;20384;-66
2023/01/15 00:58:16;;;;;;;36.55;15.98;;;;;;;;;;4998472;28;20022;-66
2023/01/15 01:00:41;;;;;;;39.07;17.27;;;;;;;;;;5000947;28;20448;-67
2023/01/15 01:03:06;;;;;;;37.43;16.83;;;;;;;;;;4995384;28;20081;-68
2023/01/15 01:05:32;;;;;;;35.37;17.07;;;;;;;;;;5001364;28;20026;-67
2023/01/15 01:07:58;;;;;;;38.43;16.93;;;;;;;;;;5006092;28;20138;-67
2023/01/15 01:10:23;;;;;;;39.58;16.95;;;;;;;;;;4987386;28;20283;-67
2023/01/15 01:12:50;;;;;;;34.35;16.45;;;;;;;;;;5007099;28;20109;-67
2023/01/15 01:15:16;;;;;;;38.92;17.15;;;;;;;;;;5003539;28;20076;-67
2023/01/15 01:17:41;;;;;;;38.42;17.45;;;;;;;;;;5003520;28;20022;-67
2023/01/15 01:20:07;;;;;;;40.95;17.63;;;;;;;;;;5002269;28;20496;-66
2023/01/15 01:22:32;;;;;;;42.75;19.65;;;;;;;;;;4988277;28;20443;-67
2023/01/15 01:24:57;;;;;;;38.37;18.80;;;;;;;;;;5002775;28;20465;-67
2023/01/15 01:27:23;;;;;;;41.88;19.17;;;;;;;;;;5005685;28;20025;-67
2023/01/15 01:29:48;;;;;;;45.13;20.10;;;;;;;;;;5004901;28;20033;-68
2023/01/15 01:32:13;;;;;;;48.53;21.10;;;;;;;;;;5003013;28;20732;-67
2023/01/15 01:34:39;;;;;;;44.55;20.75;;;;;;;;;;5004780;28;20275;-67
2023/01/15 01:37:04;;;;;;;47.67;22.33;;;;;;;;;;5000452;28;20105;-67
2023/01/15 01:39:29;;;;;;;52.13;24.00;;;;;;;;;;5004465;28;20484;-68
2023/01/15 01:41:54;;;;;;;53.90;24.53;;;;;;;;;;5006442;28;20026;-67
2023/01/15 01:44:32;;;;;;;54.97;25.50;;;;;;;;;;4990922;28;20283;-67
2023/01/15 01:46:58;;;;;;;55.47;26.38;;;;;;;;;;4992865;28;20493;-67
2023/01/15 01:49:24;;;;;;;56.28;26.58;;;;;;;;;;4987899;28;20041;-68
2023/01/15 01:51:51;;;;;;;62.03;27.63;;;;;;;;;;5005271;28;20476;-68
2023/01/15 01:54:18;;;;;;;57.70;26.42;;;;;;;;;;5001044;28;20053;-68
2023/01/15 01:56:44;;;;;;;60.38;27.42;;;;;;;;;;5004209;28;20030;-67
2023/01/15 01:59:09;;;;;;;65.93;29.70;;;;;;;;;;5005017;28;20033;-67
2023/01/15 02:01:34;;;;;;;66.93;29.85;;;;;;;;;;5003695;28;20024;-67
2023/01/15 02:04:00;;;;;;;67.35;30.98;;;;;;;;;;5005207;28;20026;-67
2023/01/15 02:06:26;;;;;;;70.40;30.48;;;;;;;;;;5004776;28;20049;-67
2023/01/15 02:08:51;;;;;;;70.28;32.20;;;;;;;;;;4998566;28;20026;-67
2023/01/15 02:11:18;;;;;;;76.22;32.88;;;;;;;;;;5005788;28;20037;-67
2023/01/15 02:13:52;;;;;;;70.57;31.95;;;;;;;;;;4990615;28;20125;-66
2023/01/15 02:16:43;;;;;;;70.60;31.17;;;;;;;;;;5001735;28;20079;-67
2023/01/15 02:19:21;;;;;;;72.60;33.38;;;;;;;;;;5004663;28;20046;-67
2023/01/15 02:21:52;;;;;;;73.05;32.63;;;;;;;;;;5005858;28;20097;-67
2023/01/15 02:24:36;;;;;;;72.25;31.50;;;;;;;;;;5003033;28;20500;-67
2023/01/15 02:27:09;;;;;;;70.90;31.83;;;;;;;;;;5001278;28;20034;-67
2023/01/15 02:29:57;;;;;;;71.90;32.40;;;;;;;;;;5004888;28;20018;-67
2023/01/15 02:32:43;;;;;;;71.90;32.03;;;;;;;;;;4963472;28;20115;-67
2023/01/15 02:35:13;;;;;;;74.38;32.75;;;;;;;;;;4960777;28;20061;-67
2023/01/15 02:37:43;;;;;;;75.07;32.88;;;;;;;;;;4964379;28;20062;-67
2023/01/15 02:40:09;;;;;;;69.53;32.10;;;;;;;;;;4967231;28;20034;-67
2023/01/15 02:42:35;;;;;;;71.10;33.47;;;;;;;;;;4962534;28;20027;-67
2023/01/15 02:45:02;;;;;;;72.05;32.35;;;;;;;;;;4965018;28;20122;-67
2023/01/15 02:47:35;;;;;;;73.18;33.13;;;;;;;;;;4963538;28;20077;-67
2023/01/15 02:50:03;;;;;;;78.20;33.75;;;;;;;;;;4964538;28;20063;-67
2023/01/15 02:52:32;;;;;;;83.95;35.92;;;;;;;;;;4961082;28;20099;-67
2023/01/15 02:55:02;;;;;;;72.82;33.08;;;;;;;;;;4966305;28;20031;-66
2023/01/15 02:57:29;;;;;;;79.75;35.17;;;;;;;;;;4960783;28;20031;-67
2023/01/15 02:59:55;;;;;;;77.95;35.25;;;;;;;;;;4950101;28;20090;-67
2023/01/15 03:02:25;;;;;;;74.53;34.42;;;;;;;;;;4960779;28;20031;-67
2023/01/15 03:04:59;;;;;;;79.55;35.17;;;;;;;;;;4964994;28;20043;-67
2023/01/15 03:07:28;;;;;;;76.53;34.08;;;;;;;;;;4964709;28;20047;-67
2023/01/15 03:09:55;;;;;;;75.85;34.30;;;;;;;;;;4991038;28;20377;-68
2023/01/15 03:12:28;;;;;;;75.70;34.63;;;;;;;;;;4998153;28;20030;-67
2023/01/15 03:15:07;;;;;;;74.53;34.28;;;;;;;;;;5003384;28;20076;-67
2023/01/15 03:17:52;;;;;;;72.53;33.67;;;;;;;;;;4997012;28;20038;-67
2023/01/15 03:20:27;;;;;;;74.57;33.60;;;;;;;;;;5001933;28;20137;-67
2023/01/15 03:22:54;;;;;;;74.55;35.25;;;;;;;;;;5007401;28;20034;-66
2023/01/15 03:25:24;;;;;;;76.88;34.10;;;;;;;;;;4998986;28;20050;-67
2023/01/15 03:27:51;;;;;;;77.63;35.05;;;;;;;;;;5000128;28;20448;-68
2023/01/15 03:30:18;;;;;;;79.53;34.08;;;;;;;;;;4988901;28;20040;-68
2023/01/15 03:32:43;;;;;;;78.72;33.42;;;;;;;;;;5005412;28;20030;-66
2023/01/15 03:35:28;;;;;;;80.30;34.80;;;;;;;;;;4999396;28;20057;-68
2023/01/15 03:37:53;;;;;;;74.00;32.58;;;;;;;;;;5002388;28;20022;-67
2023/01/15 03:40:19;;;;;;;73.30;33.63;;;;;;;;;;4992147;28;20076;-67
2023/01/15 03:45:42;;;;;;;69.10;31.65;;;;;;;;;;5001348;28;20495;-68
2023/01/15 03:48:14;;;;;;;72.22;33.28;;;;;;;;;;4999241;28;20037;-67
2023/01/15 03:50:46;;;;;;;76.55;33.78;;;;;;;;;;5006150;28;20021;-68
2023/01/15 03:53:12;;;;;;;71.22;31.88;;;;;;;;;;4996902;28;20038;-67
2023/01/15 03:55:58;;;;;;;70.75;31.95;;;;;;;;;;5003848;28;20022;-66
2023/01/15 03:58:27;;;;;;;76.05;32.65;;;;;;;;;;5001155;28;20185;-67
2023/01/15 04:00:55;;;;;;;67.22;31.05;;;;;;;;;;4996923;28;20481;-68
2023/01/15 04:03:22;;;;;;;72.50;33.38;;;;;;;;;;4987223;28;20044;-69
2023/01/15 04:05:49;;;;;;;71.28;31.45;;;;;;;;;;4996372;28;20066;-68
2023/01/15 04:08:15;;;;;;;68.30;30.60;;;;;;;;;;4961858;28;20043;-67
2023/01/15 04:10:53;;;;;;;69.20;31.52;;;;;;;;;;4964874;28;20031;-67
2023/01/15 04:13:18;;;;;;;66.00;30.48;;;;;;;;;;4968836;28;20051;-68
2023/01/15 04:15:43;;;;;;;67.68;29.00;;;;;;;;;;4963145;28;20059;-67
2023/01/15 04:18:09;;;;;;;68.90;30.07;;;;;;;;;;4965294;28;20488;-68
2023/01/15 04:20:34;;;;;;;66.17;29.67;;;;;;;;;;4964054;28;20682;-68
2023/01/15 04:22:59;;;;;;;70.53;30.23;;;;;;;;;;4962839;28;20426;-68
2023/01/15 04:25:24;;;;;;;66.03;28.17;;;;;;;;;;4960963;28;20371;-69
2023/01/15 04:27:52;;;;;;;72.63;29.98;;;;;;;;;;4960631;28;20031;-67
2023/01/15 04:30:18;;;;;;;66.03;30.38;;;;;;;;;;4981520;28;20086;-67
2023/01/15 04:32:43;;;;;;;65.25;29.38;;;;;;;;;;4970713;28;20030;-68
2023/01/15 04:35:08;;;;;;;63.38;28.10;;;;;;;;;;4970136;28;20441;-67
2023/01/15 04:37:33;;;;;;;69.50;29.27;;;;;;;;;;4966886;28;20469;-67
2023/01/15 04:39:59;;;;;;;66.77;29.57;;;;;;;;;;4968615;28;20811;-67
2023/01/15 04:45:08;;;;;;;58.03;27.45;;;;;;;;;;4964284;28;20122;-68
2023/01/15 04:47:34;;;;;;;64.25;28.48;;;;;;;;;;4966060;28;20615;-67
2023/01/15 04:49:59;;;;;;;61.77;27.10;;;;;;;;;;4963351;28;20027;-67
2023/01/15 04:52:24;;;;;;;64.00;28.03;;;;;;;;;;4964922;28;20752;-67
2023/01/15 04:54:49;;;;;;;58.23;26.80;;;;;;;;;;4965270;28;20030;-68
2023/01/15 04:57:15;;;;;;;64.70;28.57;;;;;;;;;;4963820;28;20272;-67
2023/01/15 04:59:40;;;;;;;56.07;26.90;;;;;;;;;;4963243;28;20759;-67
2023/01/15 05:02:05;;;;;;;63.53;26.20;;;;;;;;;;4967740;28;20117;-68
2023/01/15 05:04:31;;;;;;;67.93;24.80;;;;;;;;;;4963514;28;20292;-68
2023/01/15 05:06:56;;;;;;;69.32;25.15;;;;;;;3.24;nan;100986.91;4983906;28;20811;-68
2023/01/15 05:09:21;;;;;;;78.72;22.95;;;;;;;;;;4985962;28;20093;-66
2023/01/15 05:11:47;;;;;;;58.40;22.47;;;;;;;3.10;nan;100978.75;4998873;28;20065;-66
2023/01/15 05:14:12;;;;;;;52.38;21.98;;;;;;;2.99;nan;100986.84;5000090;28;20054;-66
2023/01/15 05:16:37;;;;;;;50.33;22.83;;;;;;;2.94;nan;100970.91;5004027;28;20025;-67
2023/01/15 05:19:06;;;;;;;49.67;23.38;;;;;;;2.87;nan;100969.94;5006009;28;20136;-67
2023/01/15 05:21:34;;;;;;;48.97;22.60;;;;;;;2.82;nan;100987.81;5000179;28;20022;-67
2023/01/15 05:24:02;;;;;;;48.95;22.17;;;;;;;2.82;nan;100982.59;5001861;28;20037;-67
2023/01/15 05:26:29;;;;;;;67.05;23.38;;;;;;;2.71;nan;100979.34;5006041;28;20028;-66
2023/01/15 05:28:57;;;;;;;63.72;20.85;;;;;;;2.64;nan;100978.34;4998055;28;20036;-66
2023/01/15 05:31:23;;;;;;;73.55;21.25;;;;;;;2.40;nan;100960.91;4996919;28;20034;-67
2023/01/15 05:33:50;;;;;;;71.28;19.77;;;;;;;2.41;nan;100979.91;4999638;28;20140;-67
2023/01/15 05:36:19;;;;;;;69.53;18.60;;;;;;;2.37;nan;100975.97;4997044;28;20053;-67
2023/01/15 05:38:45;;;;;;;60.75;18.58;;;;;;;2.31;nan;100991.22;4991628;28;20143;-67
2023/01/15 05:44:01;;;;;;;75.18;18.27;;;;;;;2.20;nan;100991.50;4999957;28;20036;-67
2023/01/15 05:46:27;;;;;;;50.15;17.77;;;;;;;2.15;nan;100991.16;4997138;28;20519;-67
2023/01/15 05:48:52;;;;;;;46.47;17.23;;;;;;;2.02;nan;100983.78;4983468;28;20065;-67
2023/01/15 05:51:18;;;;;;;64.30;18.13;;;;;;;2.04;nan;100996.63;5000157;28;20378;-67
2023/01/15 05:53:43;;;;;;;75.60;18.10;;;;;;;2.01;nan;100995.16;5001993;28;20349;-67
2023/01/15 05:56:09;;;;;;;50.25;17.20;;;;;;;1.79;nan;100957.50;4996091;28;20030;-67
2023/01/15 05:58:35;;;;;;;44.03;17.25;;;;;;;1.72;nan;100948.72;4998697;28;20101;-67
2023/01/15 06:01:05;;;;;;;40.20;16.77;;;;;;;1.73;nan;100962.53;4997089;28;20504;-67
2023/01/15 06:03:30;;;;;;;54.25;16.50;;;;;;;1.82;nan;100978.00;5002595;28;20027;-67
2023/01/15 06:05:56;;;;;;;52.03;16.33;;;;;;;1.67;nan;100969.94;4997314;28;20029;-66
2023/01/15 06:08:22;;;;;;;40.45;16.60;;;;;;;1.71;nan;100986.03;4986515;28;20030;-67
2023/01/15 06:10:48;;;;;;;43.40;17.10;;;;;;;1.70;nan;100989.63;5004704;28;20038;-67
2023/01/15 06:13:14;;;;;;;43.50;17.85;;;;;;;1.67;nan;100985.50;5002883;28;20389;-67
2023/01/15 06:15:40;;;;;;;58.10;17.17;;;;;;;1.66;nan;100983.88;5004052;28;20033;-67
2023/01/15 06:18:06;;;;;;;50.15;17.20;;;;;;;1.66;nan;100986.50;5006001;28;20030;-68
2023/01/15 06:20:34;;;;;;;49.63;17.60;;;;;;;1.59;nan;100974.28;5004556;28;20045;-66
2023/01/15 06:22:59;;;;;;;48.47;16.95;;;;;;;1.50;nan;100973.38;5005881;28;20037;-67
2023/01/15 06:25:24;;;;;;;54.75;16.48;;;;;;;1.39;nan;100960.66;5000976;28;20031;-66
2023/01/15 06:27:50;;;;;;;44.10;16.27;;;;;;;1.40;nan;100973.47;5003977;28;20032;-66
2023/01/15 06:30:16;;;;;;;47.63;16.10;;;;;;;1.38;nan;100974.59;4997417;28;20112;-65
2023/01/15 06:32:41;;;;;;;41.53;15.68;;;;;;;0.92;nan;100912.47;5004621;28;20018;-66
2023/01/15 06:35:07;;;;;;;37.17;16.30;;;;;;;1.30;nan;100962.38;5000287;28;20022;-66
2023/01/15 06:37:32;;;;;;;73.18;17.33;;;;;;;1.33;nan;100962.06;4988578;28;20572;-67
2023/01/15 06:39:57;;;;;;;59.10;16.88;;;;;;;1.38;nan;100954.66;5003322;28;20033;-66
2023/01/15 06:47:53;;;;;;;58.78;17.02;;;;;;;1.36;nan;100956.56;5000762;28;20036;-67
2023/01/15 06:50:18;;;;;;;76.40;16.27;;;;;;;1.35;nan;100952.38;5009378;28;20396;-66
2023/01/15 06:52:44;;;;;;;100.82;15.80;;;;;;;1.33;nan;100949.09;4985094;28;20034;-66
2023/01/15 06:55:10;;;;;;;84.45;16.65;;;;;;;1.20;nan;100926.16;5000803;28;20018;-66
2023/01/15 06:57:38;;;;;;;77.30;15.70;;;;;;;1.20;nan;100946.09;5000631;28;20014;-67
2023/01/15 07:00:03;;;;;;;51.13;15.20;;;;;;;1.24;nan;100937.03;5003066;28;20036;-67
2023/01/15 07:02:29;;;;;;;100.40;17.98;;;;;;;1.26;nan;100943.69;5002630;28;20029;-67
2023/01/15 07:04:54;;;;;;;94.47;16.45;;;;;;;1.24;nan;100927.47;5004417;28;20056;-66
2023/01/15 07:07:20;;;;;;;103.82;16.90;;;;;;;1.28;nan;100933.97;4984705;28;20053;-66
2023/01/15 07:09:45;;;;;;;72.25;17.42;;;;;;;1.21;nan;100904.41;5003770;28;20029;-66
2023/01/15 07:12:12;;;;;;;83.38;18.10;;;;;;;1.42;nan;100930.03;4985459;28;20488;-66
2023/01/15 07:14:37;;;;;;;85.03;19.98;;;;;;;1.42;nan;100922.25;5004765;28;20128;-66
2023/01/15 07:17:02;;;;;;;79.10;20.02;;;;;;;1.47;nan;100919.19;5003021;28;20104;-67
2023/01/15 07:19:28;;;;;;;54.38;17.95;;;;;;;1.52;nan;100923.94;5004364;28;20040;-66
2023/01/15 07:21:53;;;;;;;84.70;19.63;;;;;;;1.54;nan;100909.84;4983788;28;20037;-66
2023/01/15 07:24:19;;;;;;;78.22;18.95;;;;;;;1.57;nan;100913.91;5004275;28;20026;-68
2023/01/15 07:26:45;;;;;;;65.35;19.50;;;;;;;1.63;nan;100913.31;5000818;28;20468;-67
2023/01/15 07:29:10;;;;;;;73.13;20.23;;;;;;;1.59;nan;100899.00;5001690;28;20095;-67
2023/01/15 07:31:36;;;;;;;58.28;20.55;;;;;;;1.56;nan;100883.75;4991305;28;20103;-67
2023/01/15 07:34:02;;;;;;;54.30;20.90;;;;;;;1.39;nan;100855.09;5001150;28;20023;-67
2023/01/15 07:36:29;;;;;;;58.88;21.83;;;;;;;1.75;nan;100903.44;4998560;28;20025;-68
2023/01/15 07:38:54;;;;;;;102.05;30.92;;;;;;;1.61;nan;100877.13;5004645;28;20079;-67
2023/01/15 07:49:50;;;;;;;81.68;26.65;;;;;;;1.79;nan;100884.81;5004585;28;20025;-68
2023/01/15 07:52:20;;;;;;;71.20;26.88;;;;;;;1.96;nan;100892.69;5000910;28;20377;-67
2023/01/15 07:54:47;;;;;;;82.30;28.23;;;;;;;2.01;nan;100891.25;4999691;28;20026;-67
2023/01/15 07:57:18;;;;;;;77.85;27.88;;;;;;;2.07;nan;100888.03;5001227;28;20156;-67
2023/01/15 07:59:43;;;;;;;85.35;29.55;;;;;;;2.18;nan;100889.53;4999746;28;20100;-66
2023/01/15 08:02:09;;;;;;;87.80;30.55;;;;;;;2.24;nan;100882.88;5003242;28;20021;-67
2023/01/15 08:04:34;;;;;;;101.72;32.75;;;;;;;2.32;nan;100888.09;5000552;28;20021;-67
2023/01/15 08:07:00;;;;;;;105.72;35.05;;;;;;;;;;4964672;28;20069;-66
2023/01/15 08:09:26;;;;;;;107.20;36.05;;;;;;;;;;4990465;28;20037;-67
2023/01/15 08:17:19;;;;;;;97.35;31.77;;;;;;;2.92;nan;100887.03;5000886;28;20030;-67
2023/01/15 08:19:45;;;;;;;91.05;30.27;;;;;;;2.95;nan;100871.13;5008558;28;20018;-67
2023/01/15 08:22:10;;;;;;;89.88;28.73;;;;;;;3.17;nan;100880.84;4998571;28;20578;-67
2023/01/15 08:24:36;;;;;;;85.80;27.30;;;;;;;3.25;nan;100874.81;5005209;28;20464;-67
2023/01/15 08:27:01;;;;;;;64.72;23.83;;;;;;;;;;4995371;28;20152;-67
2023/01/15 08:29:27;;;;;;;63.60;22.80;;;;;;;;;;5005797;28;20392;-67
2023/01/15 08:31:52;;;;;;;48.13;20.23;;;;;;;;;;4999786;28;20033;-67
2023/01/15 08:34:18;;;;;;;45.40;19.33;;;;;;;;;;5000173;28;20279;-67
2023/01/15 08:36:43;;;;;;;37.03;16.90;;;;;;;;;;5002000;28;20030;-68
2023/01/15 08:39:08;;;;;;;32.50;15.65;;;;;;;;;;5001245;28;20629;-68
2023/01/15 08:41:34;;;;;;;28.77;15.13;;;;;;;;;;4998434;28;20066;-68
2023/01/15 08:43:59;;;;;;;30.27;15.07;;;;;;;;;;5000956;28;20017;-68
2023/01/15 08:46:24;;;;;;;24.13;12.32;;;;;;;;;;4998252;28;20153;-68
2023/01/15 08:48:50;;;;;;;24.98;13.00;;;;;;;;;;5002319;28;20029;-68
2023/01/15 08:51:15;;;;;;;21.50;11.00;;;;;;;;;;4999729;28;20465;-68
2023/01/15 08:53:40;;;;;;;22.95;11.45;;;;;;;;;;5002733;28;20417;-68
2023/01/15 08:56:16;;;;;;;23.43;10.53;;;;;;;;;;4986111;28;20034;-68
2023/01/15 08:58:41;;;;;;;20.15;10.82;;;;;;;;;;4999595;28;20268;-67
2023/01/15 09:01:07;;;;;;;20.73;10.68;;;;;;;;;;5001332;28;20049;-67
2023/01/15 09:03:33;;;;;;;21.70;11.10;;;;;;;;;;5005225;28;20392;-68
2023/01/15 09:05:58;;;;;;;21.80;10.80;;;;;;;;;;4997600;28;20033;-67
2023/01/15 09:08:23;;;;;;;20.38;11.45;;;;;;;;;;4981890;28;20479;-68
2023/01/15 09:10:49;;;;;;;22.17;11.50;;;;;;;;;;5000646;28;20516;-67
2023/01/15 09:13:14;;;;;;;22.02;10.80;;;;;;;;;;5000827;28;20045;-67
2023/01/15 09:15:39;;;;;;;21.33;9.83;;;;;;;;;;5000673;28;20113;-67
2023/01/15 09:18:05;;;;;;;19.30;10.57;;;;;;;;;;5003539;28;20038;-67
2023/01/15 09:20:30;;;;;;;20.50;11.07;;;;;;;;;;4995683;28;20022;-66
2023/01/15 09:22:55;;;;;;;19.87;10.47;;;;;;;;;;4985181;28;20480;-67
2023/01/15 09:25:23;;;;;;;18.67;10.13;;;;;;;;;;4997888;28;20272;-67
2023/01/15 09:27:48;;;;;;;18.92;10.13;;;;;;;;;;5001050;28;20112;-67
2023/01/15 09:30:19;;;;;;;21.25;10.05;;;;;;;5.91;nan;100813.38;4999661;28;20125;-67
2023/01/15 09:32:45;;;;;;;20.88;11.13;;;;;;;5.97;nan;100808.25;5004230;28;20025;-67
2023/01/15 09:35:11;;;;;;;20.95;10.45;;;;;;;6.03;nan;100801.47;4996749;28;20461;-68
2023/01/15 09:37:37;;;;;;;21.50;11.60;;;;;;;;;;4997646;28;20493;-66
2023/01/15 09:40:05;;;;;;;19.63;10.40;;;;;;;;;;5000328;28;20076;-67
2023/01/15 09:42:30;;;;;;;19.67;11.43;;;;;;;;;;4999097;28;20655;-67
2023/01/15 09:45:14;;;;;;;22.07;10.53;;;;;;;;;;5002006;28;20053;-68
2023/01/15 09:47:44;;;;;;;20.23;10.35;;;;;;;;;;5000938;28;20018;-67
2023/01/15 09:50:27;;;;;;;19.05;10.48;;;;;;;;;;4993941;28;20038;-67
2023/01/15 09:53:12;;;;;;;19.00;10.48;;;;;;;;;;5004732;28;20066;-68
2023/01/15 09:55:56;;;;;;;19.63;10.40;;;;;;;;;;5003039;28;20022;-67
2023/01/15 09:58:28;;;;;;;19.35;10.68;;;;;;;;;;5007549;28;20044;-67
2023/01/15 10:00:53;;;;;;;21.48;11.18;;;;;;;;;;5006225;28;20033;-67
2023/01/15 10:03:21;;;;;;;17.95;9.43;;;;;;;;;;5006455;28;20030;-67
2023/01/15 10:05:51;;;;;;;19.30;9.80;;;;;;;;;;5001780;28;20050;-68
2023/01/15 10:08:19;;;;;;;17.85;9.77;;;;;;;;;;5005294;28;20531;-67
2023/01/15 10:10:45;;;;;;;17.70;9.60;;;;;;;;;;4999843;28;20567;-68
2023/01/15 10:13:29;;;;;;;18.90;9.93;;;;;;;;;;4988794;28;20072;-67
2023/01/15 10:15:55;;;;;;;15.40;8.52;;;;;;;;;;5007064;28;20038;-68
2023/01/15 10:18:24;;;;;;;15.93;9.52;;;;;;;;;;4994429;28;20026;-67
2023/01/15 10:20:56;;;;;;;16.50;9.15;;;;;;;;;;5007390;28;20028;-69
2023/01/15 10:23:32;;;;;;;18.90;9.95;;;;;;;;;;5000544;28;20180;-68
2023/01/15 10:26:17;;;;;;;17.20;10.32;;;;;;;;;;5008220;28;20395;-66
2023/01/15 10:28:51;;;;;;;17.90;9.68;;;;;;;;;;5010023;28;20026;-68
2023/01/15 10:31:24;;;;;;;16.00;9.15;;;;;;;;;;5001111;28;20022;-67
2023/01/15 10:34:18;;;;;;;14.82;9.00;;;;;;;;;;5004790;28;20030;-67
2023/01/15 10:36:57;;;;;;;16.70;8.50;;;;;;;;;;4935672;29;20040;-68
2023/01/15 10:39:31;;;;;;;16.63;8.93;;;;;;;;;;4933028;29;20031;-68
2023/01/15 10:42:09;;;;;;;15.35;8.95;;;;;;;;;;4932438;29;20044;-68
2023/01/15 10:45:00;;;;;;;16.60;9.02;;;;;;;;;;4910677;29;20056;-68
2023/01/15 10:47:29;;;;;;;15.07;9.18;;;;;;;;;;4932547;29;20087;-68
2023/01/15 10:49:58;;;;;;;15.23;8.82;;;;;;;;;;4932646;29;20035;-68
2023/01/15 10:52:30;;;;;;;18.27;8.30;;;;;;;;;;4912823;29;20124;-66
2023/01/15 10:55:04;;;;;;;16.83;9.02;;;;;;;;;;4913605;29;20031;-66
2023/01/15 10:57:30;;;;;;;14.80;8.85;;;;;;;;;;4932449;29;20023;-66
2023/01/15 10:59:55;;;;;;;15.43;9.00;;;;;;;;;;4933110;29;20328;-66
2023/01/15 11:02:38;;;;;;;16.37;9.30;;;;;;;;;;4932589;29;20426;-66
2023/01/15 11:05:04;;;;;;;14.45;8.93;;;;;;;;;;4932954;29;20028;-67
2023/01/15 11:07:37;;;;;;;14.00;8.50;;;;;;;;;;4932015;29;20055;-68
2023/01/15 11:10:05;;;;;;;14.57;8.25;;;;;;;;;;4933307;29;20601;-66
2023/01/15 11:20:45;;;;;;;13.95;8.45;;;;;;;;;;4963631;28;20073;-66
2023/01/15 11:23:15;;;;;;;15.35;8.82;;;;;;;;;;4960282;28;20038;-66
2023/01/15 11:25:56;;;;;;;15.55;8.48;;;;;;;;;;4968224;28;20142;-66
2023/01/15 11:28:34;;;;;;;13.55;7.85;;;;;;;;;;4960583;28;20035;-66
2023/01/15 11:30:59;;;;;;;13.25;8.18;;;;;;;;;;4963839;28;20030;-66
2023/01/15 11:33:26;;;;;;;13.95;7.97;;;;;;;;;;4961771;28;20533;-66
2023/01/15 11:35:57;;;;;;;13.00;7.88;;;;;;;;;;4960558;28;20027;-67
2023/01/15 11:38:23;;;;;;;14.00;8.00;;;;;;;;;;4966700;28;20636;-67
2023/01/15 11:40:52;;;;;;;16.17;8.68;;;;;;;;;;4969900;28;20042;-67
2023/01/15 11:51:40;;;;;;;13.65;8.40;;;;;;;;;;4969204;28;20038;-68
2023/01/15 11:54:07;;;;;;;15.70;9.20;;;;;;;;;;4971836;28;20034;-66
2023/01/15 11:56:34;;;;;;;12.75;8.15;;;;;;;;;;4965191;28;20054;-68
2023/01/15 11:59:08;;;;;;;15.73;9.02;;;;;;;;;;4967540;28;20561;-67
2023/01/15 12:01:36;;;;;;;16.40;9.15;;;;;;;;;;4980613;28;20047;-68
2023/01/15 12:04:06;;;;;;;16.55;10.13;;;;;;;;;;4961449;28;20028;-67
2023/01/15 12:06:33;;;;;;;16.45;9.40;;;;;;;;;;4973312;28;20041;-68
2023/01/15 12:09:11;;;;;;;15.15;8.88;;;;;;;;;;5001161;28;20026;-67
2023/01/15 12:11:47;;;;;;;18.55;9.50;;;;;;;;;;5006433;28;20380;-68
2023/01/15 12:14:27;;;;;;;16.38;9.73;;;;;;;;;;5007069;28;20496;-67
2023/01/15 12:16:56;;;;;;;16.95;10.00;;;;;;;;;;5006084;28;20374;-67
2023/01/15 12:19:25;;;;;;;17.73;10.35;;;;;;;;;;5010781;28;20096;-67
2023/01/15 12:21:50;;;;;;;;;;;;;;;;;;4993302;28;20365;-68
2023/01/15 12:24:45;;;;;;;15.25;9.15;;;;;;;;;;4998046;28;20287;-67
2023/01/15 12:27:10;;;;;;;16.63;8.93;;;;;;;;;;4994486;28;20100;-67
2023/01/15 12:29:54;;;;;;;17.47;9.40;;;;;;;;;;4998951;28;20018;-67
2023/01/15 12:32:25;;;;;;;15.88;9.77;;;;;;;;;;5002771;28;20037;-67
2023/01/15 12:34:50;;;;;;;18.10;9.77;;;;;;;;;;4996931;28;20026;-67
2023/01/15 12:37:20;;;;;;;17.73;10.47;;;;;;;;;;5001781;28;20400;-67
2023/01/15 12:39:48;;;;;;;16.50;9.13;;;;;;;;;;5001851;28;20078;-68
2023/01/15 12:45:06;;;;;;;17.27;10.35;;;;;;;;;;4999352;28;20092;-68
2023/01/15 12:47:35;;;;;;;15.50;9.05;;;;;;;;;;4999767;28;20029;-67
2023/01/15 12:50:05;;;;;;;16.55;10.23;;;;;;;;;;5002651;28;20121;-67
2023/01/15 12:52:36;;;;;;;17.92;9.55;;;;;;;;;;5002103;28;20548;-67
2023/01/15 12:55:07;;;;;;;17.25;10.18;;;;;;;;;;5000863;28;20029;-67
2023/01/15 12:57:35;;;;;;;15.43;8.63;;;;;;;;;;4995889;28;20030;-68
2023/01/15 13:00:03;;;;;;;19.35;10.10;;;;;;;;;;5001999;28;20030;-69
2023/01/15 13:02:34;;;;;;;15.48;8.68;;;;;;;;;;4985364;28;20036;-67
2023/01/15 13:04:59;;;;;;;15.50;8.90;;;;;;;;;;5005508;28;20044;-70
2023/01/15 13:07:37;;;;;;;17.33;10.77;;;;;;;;;;4985800;28;20045;-67
2023/01/15 13:10:10;;;;;;;15.85;9.23;;;;;;;;;;5004118;28;20045;-69
2023/01/15 13:12:35;;;;;;;17.98;10.05;;;;;;;;;;5015288;28;20132;-68
2023/01/15 13:15:01;;;;;;;17.63;9.68;;;;;;;;;;5013197;28;20464;-69
2023/01/15 13:17:26;;;;;;;17.83;10.15;;;;;;;;;;5015996;28;20586;-68
2023/01/15 13:20:14;;;;;;;16.17;9.97;;;;;;;;;;4999339;28;20034;-68
2023/01/15 13:22:58;;;;;;;14.75;9.15;;;;;;;;;;5020498;28;20695;-68
2023/01/15 13:25:23;;;;;;;16.77;9.82;;;;;;;;;;5021858;28;20463;-70
2023/01/15 13:28:01;;;;;;;17.17;9.93;;;;;;;;;;5012843;28;20031;-70
2023/01/15 13:30:41;;;;;;;17.00;10.18;;;;;;;;;;5016789;28;20282;-72
2023/01/15 13:33:16;;;;;;;16.60;9.13;;;;;;;;;;5011605;28;20022;-71
2023/01/15 13:35:45;;;;;;;19.52;10.07;;;;;;;;;;5016780;28;20499;-70
2023/01/15 13:38:15;;;;;;;18.08;9.77;;;;;;;;;;5011580;28;20033;-69
2023/01/15 13:40:49;;;;;;;17.63;9.75;;;;;;;;;;4985814;28;20059;-69
2023/01/15 13:43:23;;;;;;;15.60;8.95;;;;;;;;;;5000731;28;20031;-69
2023/01/15 13:45:48;;;;;;;18.85;10.63;;;;;;;;;;5031845;28;20041;-66
2023/01/15 13:48:14;;;;;;;18.08;10.38;;;;;;;;;;5019442;28;20141;-68
2023/01/15 13:50:40;;;;;;;16.20;9.83;;;;;;;;;;5011313;28;20114;-68
2023/01/15 13:53:06;;;;;;;19.48;10.75;;;;;;;;;;5005774;28;20071;-69
2023/01/15 13:55:33;;;;;;;17.40;10.00;;;;;;;;;;5005442;28;20440;-69
2023/01/15 13:57:58;;;;;;;17.73;9.80;;;;;;;;;;4991511;28;20528;-70
2023/01/15 14:00:30;;;;;;;18.95;9.82;;;;;;;;;;5008420;28;20025;-70
2023/01/15 14:02:56;;;;;;;17.08;10.13;;;;;;;;;;5003673;28;20025;-69
2023/01/15 14:05:24;;;;;;;18.85;10.30;;;;;;;;;;5012128;28;20079;-69
2023/01/15 14:07:50;;;;;;;16.75;9.85;;;;;;;;;;5006206;28;20055;-70
2023/01/15 14:12:59;;;;;;;18.85;10.35;;;;;;;;;;5146098;23;20803;-69
2023/01/15 14:15:33;;;;;;;16.48;9.32;;;;;;;;;;5039652;28;20056;-69
2023/01/15 14:17:59;;;;;;;16.27;10.02;;;;;;;;;;5025060;28;20544;-68
2023/01/15 14:20:34;;;;;;;18.63;9.93;;;;;;;;;;5027898;28;20110;-70
2023/01/15 14:23:13;;;;;;;16.73;9.90;;;;;;;;;;5019054;28;20387;-68
2023/01/15 14:26:01;;;;;;;18.27;10.35;;;;;;;;;;5022237;28;20033;-68
2023/01/15 14:28:41;;;;;;;18.53;10.03;;;;;;;;;;4998771;28;20045;-69
2023/01/15 14:31:25;;;;;;;17.30;10.60;;;;;;;;;;5005466;28;20084;-70
2023/01/15 14:34:08;;;;;;;17.90;10.05;;;;;;;;;;5000962;28;20037;-70
2023/01/15 14:36:38;;;;;;;19.45;10.10;;;;;;;;;;5002127;28;20033;-70
2023/01/15 14:39:05;;;;;;;20.42;10.07;;;;;;;;;;5002938;28;20088;-71
2023/01/15 14:41:32;;;;;;;18.52;10.15;;;;;;;;;;5003468;28;20030;-70